sensor_id;sensor_type;location;lat;lon;timestamp;P1;durP1;ratioP1;P2;durP2;ratioP2
45065;SDS011;30830;53.704;10.004;2023-09-07T00:00:39;5.10;;;4.60;;
45065;SDS011;30830;53.704;10.004;2023-09-07T00:03:04;5.45;;;4.53;;
45065;SDS011;30830;53.704;10.004;2023-09-07T00:05:30;5.75;;;4.85;;
45065;SDS011;30830;53.704;10.004;2023-09-07T00:07:56;8.23;;;4.82;;
45065;SDS011;30830;53.704;10.004;2023-09-07T00:10:22;5.57;;;5.07;;
45065;SDS011;30830;53.704;10.004;2023-09-07T00:12:48;5.75;;;4.97;;
45065;SDS011;30830;53.704;10.004;2023-09-07T00:15:14;5.38;;;4.68;;
45065;SDS011;30830;53.704;10.004;2023-09-07T00:17:44;4.95;;;4.55;;
45065;SDS011;30830;53.704;10.004;2023-09-07T00:20:10;6.57;;;4.82;;
45065;SDS011;30830;53.704;10.004;2023-09-07T00:22:36;6.25;;;4.97;;
45065;SDS011;30830;53.704;10.004;2023-09-07T00:25:02;4.85;;;4.43;;
45065;SDS011;30830;53.704;10.004;2023-09-07T00:27:29;5.15;;;4.20;;
45065;SDS011;30830;53.704;10.004;2023-09-07T00:29:55;5.00;;;4.50;;
45065;SDS011;30830;53.704;10.004;2023-09-07T00:32:20;6.45;;;4.30;;
45065;SDS011;30830;53.704;10.004;2023-09-07T00:34:46;5.28;;;4.78;;
45065;SDS011;30830;53.704;10.004;2023-09-07T00:37:12;4.60;;;4.18;;
45065;SDS011;30830;53.704;10.004;2023-09-07T00:39:37;5.00;;;4.60;;
45065;SDS011;30830;53.704;10.004;2023-09-07T00:42:03;4.85;;;4.45;;
45065;SDS011;30830;53.704;10.004;2023-09-07T00:44:29;5.15;;;4.65;;
45065;SDS011;30830;53.704;10.004;2023-09-07T00:46:56;4.32;;;3.95;;
45065;SDS011;30830;53.704;10.004;2023-09-07T00:49:22;4.88;;;4.38;;
45065;SDS011;30830;53.704;10.004;2023-09-07T00:51:48;4.22;;;3.92;;
45065;SDS011;30830;53.704;10.004;2023-09-07T00:54:13;5.18;;;4.18;;
45065;SDS011;30830;53.704;10.004;2023-09-07T00:56:39;4.82;;;4.43;;
45065;SDS011;30830;53.704;10.004;2023-09-07T00:59:06;5.25;;;4.78;;
45065;SDS011;30830;53.704;10.004;2023-09-07T01:01:32;4.68;;;4.28;;
45065;SDS011;30830;53.704;10.004;2023-09-07T01:03:59;4.70;;;4.20;;
45065;SDS011;30830;53.704;10.004;2023-09-07T01:06:26;4.45;;;4.05;;
45065;SDS011;30830;53.704;10.004;2023-09-07T01:09:02;4.28;;;3.88;;
45065;SDS011;30830;53.704;10.004;2023-09-07T01:11:35;4.65;;;3.83;;
45065;SDS011;30830;53.704;10.004;2023-09-07T01:14:02;4.95;;;4.55;;
45065;SDS011;30830;53.704;10.004;2023-09-07T01:16:29;4.28;;;3.88;;
45065;SDS011;30830;53.704;10.004;2023-09-07T01:18:55;5.45;;;4.95;;
45065;SDS011;30830;53.704;10.004;2023-09-07T01:21:22;4.40;;;3.97;;
45065;SDS011;30830;53.704;10.004;2023-09-07T01:23:48;3.92;;;3.53;;
45065;SDS011;30830;53.704;10.004;2023-09-07T01:26:14;5.15;;;3.92;;
45065;SDS011;30830;53.704;10.004;2023-09-07T01:28:40;3.95;;;3.65;;
45065;SDS011;30830;53.704;10.004;2023-09-07T01:31:06;4.88;;;4.07;;
45065;SDS011;30830;53.704;10.004;2023-09-07T01:33:32;7.18;;;4.82;;
45065;SDS011;30830;53.704;10.004;2023-09-07T01:35:58;5.35;;;4.85;;
45065;SDS011;30830;53.704;10.004;2023-09-07T01:38:23;5.22;;;4.68;;
45065;SDS011;30830;53.704;10.004;2023-09-07T01:40:49;4.65;;;4.25;;
45065;SDS011;30830;53.704;10.004;2023-09-07T01:43:15;4.22;;;3.88;;
45065;SDS011;30830;53.704;10.004;2023-09-07T01:45:40;4.50;;;4.07;;
45065;SDS011;30830;53.704;10.004;2023-09-07T01:48:08;4.80;;;4.22;;
45065;SDS011;30830;53.704;10.004;2023-09-07T01:50:35;4.88;;;4.38;;
45065;SDS011;30830;53.704;10.004;2023-09-07T01:53:01;4.38;;;3.97;;
45065;SDS011;30830;53.704;10.004;2023-09-07T01:55:29;4.38;;;3.97;;
45065;SDS011;30830;53.704;10.004;2023-09-07T01:57:55;4.95;;;4.55;;
45065;SDS011;30830;53.704;10.004;2023-09-07T02:00:21;5.20;;;4.68;;
45065;SDS011;30830;53.704;10.004;2023-09-07T02:02:46;4.03;;;3.67;;
45065;SDS011;30830;53.704;10.004;2023-09-07T02:05:12;4.65;;;4.05;;
45065;SDS011;30830;53.704;10.004;2023-09-07T02:07:37;4.97;;;4.45;;
45065;SDS011;30830;53.704;10.004;2023-09-07T02:10:03;4.28;;;3.90;;
45065;SDS011;30830;53.704;10.004;2023-09-07T02:12:29;4.55;;;4.15;;
45065;SDS011;30830;53.704;10.004;2023-09-07T02:14:55;4.63;;;4.22;;
45065;SDS011;30830;53.704;10.004;2023-09-07T02:17:21;6.07;;;4.28;;
45065;SDS011;30830;53.704;10.004;2023-09-07T02:19:49;4.57;;;4.18;;
45065;SDS011;30830;53.704;10.004;2023-09-07T02:22:15;5.13;;;4.55;;
45065;SDS011;30830;53.704;10.004;2023-09-07T02:24:40;5.30;;;4.85;;
45065;SDS011;30830;53.704;10.004;2023-09-07T02:27:06;5.00;;;4.35;;
45065;SDS011;30830;53.704;10.004;2023-09-07T02:29:32;4.75;;;4.35;;
45065;SDS011;30830;53.704;10.004;2023-09-07T02:31:57;5.47;;;4.70;;
45065;SDS011;30830;53.704;10.004;2023-09-07T02:34:23;5.32;;;4.82;;
45065;SDS011;30830;53.704;10.004;2023-09-07T02:36:48;5.13;;;4.63;;
45065;SDS011;30830;53.704;10.004;2023-09-07T02:39:14;5.50;;;4.15;;
45065;SDS011;30830;53.704;10.004;2023-09-07T02:41:40;4.75;;;4.35;;
45065;SDS011;30830;53.704;10.004;2023-09-07T02:44:05;5.38;;;4.88;;
45065;SDS011;30830;53.704;10.004;2023-09-07T02:46:31;9.48;;;5.68;;
45065;SDS011;30830;53.704;10.004;2023-09-07T02:48:56;5.72;;;4.88;;
45065;SDS011;30830;53.704;10.004;2023-09-07T02:51:23;5.20;;;4.70;;
45065;SDS011;30830;53.704;10.004;2023-09-07T02:53:51;6.10;;;5.45;;
45065;SDS011;30830;53.704;10.004;2023-09-07T02:56:18;8.38;;;4.95;;
45065;SDS011;30830;53.704;10.004;2023-09-07T02:58:43;5.75;;;5.25;;
45065;SDS011;30830;53.704;10.004;2023-09-07T03:01:10;7.28;;;6.63;;
45065;SDS011;30830;53.704;10.004;2023-09-07T03:03:36;6.32;;;5.72;;
45065;SDS011;30830;53.704;10.004;2023-09-07T03:06:11;6.47;;;5.80;;
45065;SDS011;30830;53.704;10.004;2023-09-07T03:08:39;6.07;;;5.47;;
45065;SDS011;30830;53.704;10.004;2023-09-07T03:11:05;5.93;;;5.13;;
45065;SDS011;30830;53.704;10.004;2023-09-07T03:13:31;6.80;;;6.20;;
45065;SDS011;30830;53.704;10.004;2023-09-07T03:15:57;6.13;;;5.63;;
45065;SDS011;30830;53.704;10.004;2023-09-07T03:18:24;6.80;;;6.20;;
45065;SDS011;30830;53.704;10.004;2023-09-07T03:20:50;6.22;;;5.72;;
45065;SDS011;30830;53.704;10.004;2023-09-07T03:23:16;5.13;;;4.72;;
45065;SDS011;30830;53.704;10.004;2023-09-07T03:25:41;5.65;;;5.15;;
45065;SDS011;30830;53.704;10.004;2023-09-07T03:28:07;7.30;;;6.60;;
45065;SDS011;30830;53.704;10.004;2023-09-07T03:30:33;6.55;;;5.70;;
45065;SDS011;30830;53.704;10.004;2023-09-07T03:32:58;8.57;;;6.53;;
45065;SDS011;30830;53.704;10.004;2023-09-07T03:35:24;7.93;;;6.47;;
45065;SDS011;30830;53.704;10.004;2023-09-07T03:37:51;6.72;;;5.88;;
45065;SDS011;30830;53.704;10.004;2023-09-07T03:40:16;6.13;;;5.63;;
45065;SDS011;30830;53.704;10.004;2023-09-07T03:42:42;6.60;;;6.00;;
45065;SDS011;30830;53.704;10.004;2023-09-07T03:45:08;6.50;;;5.90;;
45065;SDS011;30830;53.704;10.004;2023-09-07T03:47:34;6.63;;;5.85;;
45065;SDS011;30830;53.704;10.004;2023-09-07T03:50:00;6.40;;;5.80;;
45065;SDS011;30830;53.704;10.004;2023-09-07T03:52:26;7.20;;;6.53;;
45065;SDS011;30830;53.704;10.004;2023-09-07T03:54:55;7.18;;;6.47;;
45065;SDS011;30830;53.704;10.004;2023-09-07T03:57:21;6.72;;;6.07;;
45065;SDS011;30830;53.704;10.004;2023-09-07T03:59:47;6.10;;;5.50;;
45065;SDS011;30830;53.704;10.004;2023-09-07T04:02:13;7.47;;;5.72;;
45065;SDS011;30830;53.704;10.004;2023-09-07T04:04:39;7.22;;;6.63;;
45065;SDS011;30830;53.704;10.004;2023-09-07T04:07:05;7.30;;;6.60;;
45065;SDS011;30830;53.704;10.004;2023-09-07T04:09:31;6.70;;;6.00;;
45065;SDS011;30830;53.704;10.004;2023-09-07T04:11:57;7.60;;;6.60;;
45065;SDS011;30830;53.704;10.004;2023-09-07T04:14:22;7.60;;;6.53;;
45065;SDS011;30830;53.704;10.004;2023-09-07T04:16:48;6.55;;;5.93;;
45065;SDS011;30830;53.704;10.004;2023-09-07T04:19:13;7.90;;;6.30;;
45065;SDS011;30830;53.704;10.004;2023-09-07T04:21:39;7.53;;;6.68;;
45065;SDS011;30830;53.704;10.004;2023-09-07T04:24:04;6.85;;;6.15;;
45065;SDS011;30830;53.704;10.004;2023-09-07T04:26:30;9.20;;;6.30;;
45065;SDS011;30830;53.704;10.004;2023-09-07T04:28:56;9.38;;;6.72;;
45065;SDS011;30830;53.704;10.004;2023-09-07T04:31:21;6.18;;;5.55;;
45065;SDS011;30830;53.704;10.004;2023-09-07T04:33:49;6.40;;;5.80;;
45065;SDS011;30830;53.704;10.004;2023-09-07T04:36:15;6.28;;;5.70;;
45065;SDS011;30830;53.704;10.004;2023-09-07T04:38:41;7.03;;;6.43;;
45065;SDS011;30830;53.704;10.004;2023-09-07T04:41:10;6.60;;;6.00;;
45065;SDS011;30830;53.704;10.004;2023-09-07T04:43:37;7.05;;;6.43;;
45065;SDS011;30830;53.704;10.004;2023-09-07T04:46:13;8.27;;;6.55;;
45065;SDS011;30830;53.704;10.004;2023-09-07T04:48:39;6.28;;;5.78;;
45065;SDS011;30830;53.704;10.004;2023-09-07T04:51:07;7.65;;;6.63;;
45065;SDS011;30830;53.704;10.004;2023-09-07T04:53:35;6.53;;;5.90;;
45065;SDS011;30830;53.704;10.004;2023-09-07T04:56:02;6.55;;;6.03;;
45065;SDS011;30830;53.704;10.004;2023-09-07T04:58:29;7.10;;;6.40;;
45065;SDS011;30830;53.704;10.004;2023-09-07T05:01:00;6.97;;;6.25;;
45065;SDS011;30830;53.704;10.004;2023-09-07T05:03:27;6.75;;;6.05;;
45065;SDS011;30830;53.704;10.004;2023-09-07T05:05:53;7.03;;;6.35;;
45065;SDS011;30830;53.704;10.004;2023-09-07T05:08:18;7.20;;;6.30;;
45065;SDS011;30830;53.704;10.004;2023-09-07T05:10:44;7.20;;;6.50;;
45065;SDS011;30830;53.704;10.004;2023-09-07T05:13:10;6.22;;;5.70;;
45065;SDS011;30830;53.704;10.004;2023-09-07T05:15:35;6.55;;;5.95;;
45065;SDS011;30830;53.704;10.004;2023-09-07T05:18:01;8.38;;;6.50;;
45065;SDS011;30830;53.704;10.004;2023-09-07T05:20:29;7.32;;;6.63;;
45065;SDS011;30830;53.704;10.004;2023-09-07T05:22:55;7.95;;;7.13;;
45065;SDS011;30830;53.704;10.004;2023-09-07T05:25:21;6.57;;;5.97;;
45065;SDS011;30830;53.704;10.004;2023-09-07T05:27:47;7.63;;;6.28;;
45065;SDS011;30830;53.704;10.004;2023-09-07T05:30:14;6.68;;;6.07;;
45065;SDS011;30830;53.704;10.004;2023-09-07T05:32:39;7.07;;;6.30;;
45065;SDS011;30830;53.704;10.004;2023-09-07T05:35:06;7.78;;;6.45;;
45065;SDS011;30830;53.704;10.004;2023-09-07T05:37:32;8.48;;;6.30;;
45065;SDS011;30830;53.704;10.004;2023-09-07T05:39:58;6.35;;;5.75;;
45065;SDS011;30830;53.704;10.004;2023-09-07T05:42:23;7.55;;;6.20;;
45065;SDS011;30830;53.704;10.004;2023-09-07T05:44:51;6.85;;;6.20;;
45065;SDS011;30830;53.704;10.004;2023-09-07T05:47:16;7.10;;;5.90;;
45065;SDS011;30830;53.704;10.004;2023-09-07T05:49:42;6.65;;;6.05;;
45065;SDS011;30830;53.704;10.004;2023-09-07T05:52:08;6.47;;;5.88;;
45065;SDS011;30830;53.704;10.004;2023-09-07T05:54:33;8.40;;;6.03;;
45065;SDS011;30830;53.704;10.004;2023-09-07T05:56:59;6.93;;;6.32;;
45065;SDS011;30830;53.704;10.004;2023-09-07T05:59:25;6.97;;;6.28;;
45065;SDS011;30830;53.704;10.004;2023-09-07T06:01:50;6.35;;;5.70;;
45065;SDS011;30830;53.704;10.004;2023-09-07T06:04:16;7.82;;;6.45;;
45065;SDS011;30830;53.704;10.004;2023-09-07T06:06:41;6.22;;;5.63;;
45065;SDS011;30830;53.704;10.004;2023-09-07T06:09:07;6.75;;;6.15;;
45065;SDS011;30830;53.704;10.004;2023-09-07T06:11:32;6.68;;;6.07;;
45065;SDS011;30830;53.704;10.004;2023-09-07T06:13:59;8.35;;;6.40;;
45065;SDS011;30830;53.704;10.004;2023-09-07T06:16:25;7.88;;;6.18;;
45065;SDS011;30830;53.704;10.004;2023-09-07T06:18:50;7.07;;;6.22;;
45065;SDS011;30830;53.704;10.004;2023-09-07T06:21:16;6.45;;;5.88;;
45065;SDS011;30830;53.704;10.004;2023-09-07T06:23:41;6.90;;;6.25;;
45065;SDS011;30830;53.704;10.004;2023-09-07T06:26:08;7.05;;;6.30;;
45065;SDS011;30830;53.704;10.004;2023-09-07T06:28:33;6.32;;;5.72;;
45065;SDS011;30830;53.704;10.004;2023-09-07T06:30:59;7.38;;;6.68;;
45065;SDS011;30830;53.704;10.004;2023-09-07T06:33:24;6.70;;;6.10;;
45065;SDS011;30830;53.704;10.004;2023-09-07T06:35:50;6.93;;;6.28;;
45065;SDS011;30830;53.704;10.004;2023-09-07T06:38:16;8.13;;;5.65;;
45065;SDS011;30830;53.704;10.004;2023-09-07T06:40:46;7.40;;;6.50;;
45065;SDS011;30830;53.704;10.004;2023-09-07T06:43:13;6.20;;;5.70;;
45065;SDS011;30830;53.704;10.004;2023-09-07T06:45:38;5.78;;;5.28;;
45065;SDS011;30830;53.704;10.004;2023-09-07T06:48:04;5.80;;;5.20;;
45065;SDS011;30830;53.704;10.004;2023-09-07T06:50:29;6.32;;;5.72;;
45065;SDS011;30830;53.704;10.004;2023-09-07T06:52:55;6.05;;;5.55;;
45065;SDS011;30830;53.704;10.004;2023-09-07T06:55:21;6.50;;;5.32;;
45065;SDS011;30830;53.704;10.004;2023-09-07T06:57:47;7.13;;;6.53;;
45065;SDS011;30830;53.704;10.004;2023-09-07T07:00:12;6.32;;;5.72;;
45065;SDS011;30830;53.704;10.004;2023-09-07T07:02:38;8.27;;;5.93;;
45065;SDS011;30830;53.704;10.004;2023-09-07T07:05:04;6.53;;;5.93;;
45065;SDS011;30830;53.704;10.004;2023-09-07T07:07:30;5.82;;;5.18;;
45065;SDS011;30830;53.704;10.004;2023-09-07T07:09:56;6.15;;;5.50;;
45065;SDS011;30830;53.704;10.004;2023-09-07T07:12:21;6.10;;;5.53;;
45065;SDS011;30830;53.704;10.004;2023-09-07T07:14:47;5.93;;;5.35;;
45065;SDS011;30830;53.704;10.004;2023-09-07T07:17:13;6.28;;;5.68;;
45065;SDS011;30830;53.704;10.004;2023-09-07T07:19:38;6.35;;;5.75;;
45065;SDS011;30830;53.704;10.004;2023-09-07T07:22:04;6.10;;;5.60;;
45065;SDS011;30830;53.704;10.004;2023-09-07T07:24:29;5.68;;;5.18;;
45065;SDS011;30830;53.704;10.004;2023-09-07T07:26:55;5.88;;;5.07;;
45065;SDS011;30830;53.704;10.004;2023-09-07T07:29:20;6.05;;;5.45;;
45065;SDS011;30830;53.704;10.004;2023-09-07T07:31:46;5.63;;;5.00;;
45065;SDS011;30830;53.704;10.004;2023-09-07T07:34:12;5.57;;;4.65;;
45065;SDS011;30830;53.704;10.004;2023-09-07T07:36:37;5.47;;;4.97;;
45065;SDS011;30830;53.704;10.004;2023-09-07T07:39:03;4.70;;;4.30;;
45065;SDS011;30830;53.704;10.004;2023-09-07T07:41:31;5.53;;;4.60;;
45065;SDS011;30830;53.704;10.004;2023-09-07T07:43:57;5.28;;;4.78;;
45065;SDS011;30830;53.704;10.004;2023-09-07T07:46:23;4.30;;;3.90;;
45065;SDS011;30830;53.704;10.004;2023-09-07T07:48:49;5.05;;;4.65;;
45065;SDS011;30830;53.704;10.004;2023-09-07T07:51:14;5.38;;;4.88;;
45065;SDS011;30830;53.704;10.004;2023-09-07T07:53:40;4.85;;;4.45;;
45065;SDS011;30830;53.704;10.004;2023-09-07T07:56:05;4.53;;;4.13;;
45065;SDS011;30830;53.704;10.004;2023-09-07T07:58:38;5.03;;;4.32;;
45065;SDS011;30830;53.704;10.004;2023-09-07T08:01:10;5.57;;;4.70;;
45065;SDS011;30830;53.704;10.004;2023-09-07T08:03:41;5.05;;;4.63;;
45065;SDS011;30830;53.704;10.004;2023-09-07T08:06:08;4.90;;;3.70;;
45065;SDS011;30830;53.704;10.004;2023-09-07T08:08:33;4.43;;;4.05;;
45065;SDS011;30830;53.704;10.004;2023-09-07T08:10:59;5.63;;;4.10;;
45065;SDS011;30830;53.704;10.004;2023-09-07T08:13:29;4.78;;;4.32;;
45065;SDS011;30830;53.704;10.004;2023-09-07T08:15:55;5.10;;;4.53;;
45065;SDS011;30830;53.704;10.004;2023-09-07T08:18:20;5.70;;;4.47;;
45065;SDS011;30830;53.704;10.004;2023-09-07T08:20:48;4.40;;;3.65;;
45065;SDS011;30830;53.704;10.004;2023-09-07T08:23:14;7.35;;;4.47;;
45065;SDS011;30830;53.704;10.004;2023-09-07T08:25:39;5.32;;;4.05;;
45065;SDS011;30830;53.704;10.004;2023-09-07T08:28:09;4.80;;;4.40;;
45065;SDS011;30830;53.704;10.004;2023-09-07T08:30:35;4.20;;;3.88;;
45065;SDS011;30830;53.704;10.004;2023-09-07T08:33:02;5.57;;;4.22;;
45065;SDS011;30830;53.704;10.004;2023-09-07T08:35:30;7.40;;;3.65;;
45065;SDS011;30830;53.704;10.004;2023-09-07T08:38:00;6.20;;;4.13;;
45065;SDS011;30830;53.704;10.004;2023-09-07T08:40:26;4.70;;;4.28;;
45065;SDS011;30830;53.704;10.004;2023-09-07T08:42:52;4.43;;;4.03;;
45065;SDS011;30830;53.704;10.004;2023-09-07T08:45:19;5.50;;;4.22;;
45065;SDS011;30830;53.704;10.004;2023-09-07T08:47:47;4.95;;;4.32;;
45065;SDS011;30830;53.704;10.004;2023-09-07T08:50:14;4.57;;;4.18;;
45065;SDS011;30830;53.704;10.004;2023-09-07T08:52:42;5.78;;;4.20;;
45065;SDS011;30830;53.704;10.004;2023-09-07T08:55:10;6.13;;;4.30;;
45065;SDS011;30830;53.704;10.004;2023-09-07T08:57:37;4.85;;;4.15;;
45065;SDS011;30830;53.704;10.004;2023-09-07T09:00:03;4.60;;;4.15;;
45065;SDS011;30830;53.704;10.004;2023-09-07T09:02:34;4.18;;;3.58;;
45065;SDS011;30830;53.704;10.004;2023-09-07T09:05:01;4.05;;;3.70;;
45065;SDS011;30830;53.704;10.004;2023-09-07T09:07:29;5.30;;;4.53;;
45065;SDS011;30830;53.704;10.004;2023-09-07T09:10:02;5.00;;;3.90;;
45065;SDS011;30830;53.704;10.004;2023-09-07T09:12:31;4.65;;;4.25;;
45065;SDS011;30830;53.704;10.004;2023-09-07T09:14:58;4.93;;;4.22;;
45065;SDS011;30830;53.704;10.004;2023-09-07T09:17:25;6.40;;;4.20;;
45065;SDS011;30830;53.704;10.004;2023-09-07T09:19:51;4.22;;;3.83;;
45065;SDS011;30830;53.704;10.004;2023-09-07T09:22:16;6.05;;;3.90;;
45065;SDS011;30830;53.704;10.004;2023-09-07T09:24:42;4.80;;;3.80;;
45065;SDS011;30830;53.704;10.004;2023-09-07T09:27:08;4.78;;;3.75;;
45065;SDS011;30830;53.704;10.004;2023-09-07T09:29:33;4.38;;;3.90;;
45065;SDS011;30830;53.704;10.004;2023-09-07T09:32:03;4.47;;;4.07;;
45065;SDS011;30830;53.704;10.004;2023-09-07T09:34:33;4.07;;;3.50;;
45065;SDS011;30830;53.704;10.004;2023-09-07T09:37:01;4.15;;;3.75;;
45065;SDS011;30830;53.704;10.004;2023-09-07T09:39:28;8.70;;;4.03;;
45065;SDS011;30830;53.704;10.004;2023-09-07T09:41:54;4.05;;;3.72;;
45065;SDS011;30830;53.704;10.004;2023-09-07T09:44:21;3.67;;;3.38;;
45065;SDS011;30830;53.704;10.004;2023-09-07T09:46:51;4.13;;;3.50;;
45065;SDS011;30830;53.704;10.004;2023-09-07T09:49:18;4.18;;;3.78;;
45065;SDS011;30830;53.704;10.004;2023-09-07T09:51:45;5.60;;;3.28;;
45065;SDS011;30830;53.704;10.004;2023-09-07T09:54:14;3.92;;;3.47;;
45065;SDS011;30830;53.704;10.004;2023-09-07T09:56:41;5.07;;;3.72;;
45065;SDS011;30830;53.704;10.004;2023-09-07T09:59:07;3.60;;;3.33;;
45065;SDS011;30830;53.704;10.004;2023-09-07T10:01:40;3.70;;;3.35;;
45065;SDS011;30830;53.704;10.004;2023-09-07T10:04:12;4.00;;;3.40;;
45065;SDS011;30830;53.704;10.004;2023-09-07T10:06:49;3.45;;;3.15;;
45065;SDS011;30830;53.704;10.004;2023-09-07T10:09:19;3.53;;;2.92;;
45065;SDS011;30830;53.704;10.004;2023-09-07T10:11:50;3.67;;;3.38;;
45065;SDS011;30830;53.704;10.004;2023-09-07T10:14:19;4.03;;;3.63;;
45065;SDS011;30830;53.704;10.004;2023-09-07T10:16:46;4.82;;;3.25;;
45065;SDS011;30830;53.704;10.004;2023-09-07T10:19:23;4.00;;;3.60;;
45065;SDS011;30830;53.704;10.004;2023-09-07T10:21:50;4.05;;;3.65;;
45065;SDS011;30830;53.704;10.004;2023-09-07T10:24:31;4.72;;;3.40;;
45065;SDS011;30830;53.704;10.004;2023-09-07T10:27:04;5.07;;;3.88;;
45065;SDS011;30830;53.704;10.004;2023-09-07T10:29:53;3.90;;;3.40;;
45065;SDS011;30830;53.704;10.004;2023-09-07T10:32:18;3.38;;;3.08;;
45065;SDS011;30830;53.704;10.004;2023-09-07T10:34:43;4.18;;;3.78;;
45065;SDS011;30830;53.704;10.004;2023-09-07T10:37:12;3.45;;;3.17;;
45065;SDS011;30830;53.704;10.004;2023-09-07T10:39:39;3.97;;;3.45;;
45065;SDS011;30830;53.704;10.004;2023-09-07T10:42:08;4.97;;;3.88;;
45065;SDS011;30830;53.704;10.004;2023-09-07T10:44:33;4.03;;;3.55;;
45065;SDS011;30830;53.704;10.004;2023-09-07T10:46:59;7.85;;;3.67;;
45065;SDS011;30830;53.704;10.004;2023-09-07T10:49:25;4.10;;;3.58;;
45065;SDS011;30830;53.704;10.004;2023-09-07T10:51:51;3.75;;;3.35;;
45065;SDS011;30830;53.704;10.004;2023-09-07T10:54:17;5.43;;;3.30;;
45065;SDS011;30830;53.704;10.004;2023-09-07T10:56:44;6.43;;;3.28;;
45065;SDS011;30830;53.704;10.004;2023-09-07T10:59:11;4.72;;;3.13;;
45065;SDS011;30830;53.704;10.004;2023-09-07T11:01:39;3.70;;;3.40;;
45065;SDS011;30830;53.704;10.004;2023-09-07T11:04:05;3.85;;;3.45;;
45065;SDS011;30830;53.704;10.004;2023-09-07T11:06:33;3.53;;;3.22;;
45065;SDS011;30830;53.704;10.004;2023-09-07T11:08:59;4.50;;;2.83;;
45065;SDS011;30830;53.704;10.004;2023-09-07T11:11:28;3.67;;;3.33;;
45065;SDS011;30830;53.704;10.004;2023-09-07T11:13:56;3.92;;;3.30;;
45065;SDS011;30830;53.704;10.004;2023-09-07T11:16:25;2.92;;;2.67;;
45065;SDS011;30830;53.704;10.004;2023-09-07T11:18:52;3.63;;;3.33;;
45065;SDS011;30830;53.704;10.004;2023-09-07T11:21:19;3.60;;;3.30;;
45065;SDS011;30830;53.704;10.004;2023-09-07T11:23:45;3.05;;;2.80;;
45065;SDS011;30830;53.704;10.004;2023-09-07T11:26:11;5.88;;;3.00;;
45065;SDS011;30830;53.704;10.004;2023-09-07T11:28:37;3.28;;;3.00;;
45065;SDS011;30830;53.704;10.004;2023-09-07T11:31:03;4.03;;;3.17;;
45065;SDS011;30830;53.704;10.004;2023-09-07T11:33:32;3.45;;;3.15;;
45065;SDS011;30830;53.704;10.004;2023-09-07T11:35:58;4.07;;;3.00;;
45065;SDS011;30830;53.704;10.004;2023-09-07T11:38:28;2.95;;;2.72;;
45065;SDS011;30830;53.704;10.004;2023-09-07T11:40:59;3.00;;;2.70;;
45065;SDS011;30830;53.704;10.004;2023-09-07T11:43:25;3.00;;;2.70;;
45065;SDS011;30830;53.704;10.004;2023-09-07T11:45:50;3.10;;;2.72;;
45065;SDS011;30830;53.704;10.004;2023-09-07T11:48:16;3.20;;;2.67;;
45065;SDS011;30830;53.704;10.004;2023-09-07T11:50:42;2.90;;;2.60;;
45065;SDS011;30830;53.704;10.004;2023-09-07T11:53:08;2.88;;;2.63;;
45065;SDS011;30830;53.704;10.004;2023-09-07T11:55:34;2.63;;;2.33;;
45065;SDS011;30830;53.704;10.004;2023-09-07T11:58:03;2.88;;;2.33;;
45065;SDS011;30830;53.704;10.004;2023-09-07T12:00:32;2.97;;;2.70;;
45065;SDS011;30830;53.704;10.004;2023-09-07T12:02:58;4.50;;;2.88;;
45065;SDS011;30830;53.704;10.004;2023-09-07T12:05:24;3.25;;;2.70;;
45065;SDS011;30830;53.704;10.004;2023-09-07T12:07:49;3.08;;;2.88;;
45065;SDS011;30830;53.704;10.004;2023-09-07T12:10:15;3.00;;;2.80;;
45065;SDS011;30830;53.704;10.004;2023-09-07T12:12:41;6.07;;;2.60;;
45065;SDS011;30830;53.704;10.004;2023-09-07T12:15:08;3.92;;;2.40;;
45065;SDS011;30830;53.704;10.004;2023-09-07T12:17:36;3.15;;;2.78;;
45065;SDS011;30830;53.704;10.004;2023-09-07T12:20:05;3.42;;;3.13;;
45065;SDS011;30830;53.704;10.004;2023-09-07T12:22:36;4.10;;;2.60;;
45065;SDS011;30830;53.704;10.004;2023-09-07T12:25:03;3.05;;;2.75;;
45065;SDS011;30830;53.704;10.004;2023-09-07T12:27:31;2.85;;;2.60;;
45065;SDS011;30830;53.704;10.004;2023-09-07T12:30:00;4.47;;;2.80;;
45065;SDS011;30830;53.704;10.004;2023-09-07T12:32:33;3.17;;;2.72;;
45065;SDS011;30830;53.704;10.004;2023-09-07T12:34:59;4.18;;;2.95;;
45065;SDS011;30830;53.704;10.004;2023-09-07T12:37:24;3.50;;;3.08;;
45065;SDS011;30830;53.704;10.004;2023-09-07T12:39:50;2.75;;;2.55;;
45065;SDS011;30830;53.704;10.004;2023-09-07T12:42:16;4.15;;;2.80;;
45065;SDS011;30830;53.704;10.004;2023-09-07T12:44:43;3.20;;;2.80;;
45065;SDS011;30830;53.704;10.004;2023-09-07T12:47:08;5.20;;;2.67;;
45065;SDS011;30830;53.704;10.004;2023-09-07T12:49:34;2.95;;;2.72;;
45065;SDS011;30830;53.704;10.004;2023-09-07T12:52:02;3.00;;;2.80;;
45065;SDS011;30830;53.704;10.004;2023-09-07T12:54:33;3.25;;;2.85;;
45065;SDS011;30830;53.704;10.004;2023-09-07T12:57:00;3.13;;;2.83;;
45065;SDS011;30830;53.704;10.004;2023-09-07T12:59:25;3.60;;;3.30;;
45065;SDS011;30830;53.704;10.004;2023-09-07T13:01:51;3.35;;;3.08;;
45065;SDS011;30830;53.704;10.004;2023-09-07T13:04:18;3.60;;;3.30;;
45065;SDS011;30830;53.704;10.004;2023-09-07T13:06:44;5.75;;;2.63;;
45065;SDS011;30830;53.704;10.004;2023-09-07T13:09:10;3.70;;;3.08;;
45065;SDS011;30830;53.704;10.004;2023-09-07T13:11:36;4.78;;;2.60;;
45065;SDS011;30830;53.704;10.004;2023-09-07T13:14:02;3.97;;;2.92;;
45065;SDS011;30830;53.704;10.004;2023-09-07T13:16:27;3.17;;;2.88;;
45065;SDS011;30830;53.704;10.004;2023-09-07T13:18:53;3.90;;;2.63;;
45065;SDS011;30830;53.704;10.004;2023-09-07T13:21:18;3.92;;;2.97;;
45065;SDS011;30830;53.704;10.004;2023-09-07T13:23:44;4.82;;;2.70;;
45065;SDS011;30830;53.704;10.004;2023-09-07T13:26:11;3.55;;;3.25;;
45065;SDS011;30830;53.704;10.004;2023-09-07T13:28:40;5.45;;;3.10;;
45065;SDS011;30830;53.704;10.004;2023-09-07T13:31:06;2.90;;;2.35;;
45065;SDS011;30830;53.704;10.004;2023-09-07T13:33:31;4.22;;;2.80;;
45065;SDS011;30830;53.704;10.004;2023-09-07T13:35:57;3.17;;;2.72;;
45065;SDS011;30830;53.704;10.004;2023-09-07T13:38:23;3.33;;;3.03;;
45065;SDS011;30830;53.704;10.004;2023-09-07T13:40:48;3.20;;;2.90;;
45065;SDS011;30830;53.704;10.004;2023-09-07T13:43:14;2.50;;;2.30;;
45065;SDS011;30830;53.704;10.004;2023-09-07T13:45:40;5.80;;;2.70;;
45065;SDS011;30830;53.704;10.004;2023-09-07T13:48:05;2.63;;;2.42;;
45065;SDS011;30830;53.704;10.004;2023-09-07T13:50:31;2.70;;;2.15;;
45065;SDS011;30830;53.704;10.004;2023-09-07T13:52:56;3.20;;;2.47;;
45065;SDS011;30830;53.704;10.004;2023-09-07T13:55:22;5.57;;;2.45;;
45065;SDS011;30830;53.704;10.004;2023-09-07T13:57:50;2.75;;;2.38;;
45065;SDS011;30830;53.704;10.004;2023-09-07T14:00:15;3.75;;;2.75;;
45065;SDS011;30830;53.704;10.004;2023-09-07T14:02:41;2.38;;;2.15;;
45065;SDS011;30830;53.704;10.004;2023-09-07T14:05:06;2.42;;;2.22;;
45065;SDS011;30830;53.704;10.004;2023-09-07T14:07:33;3.35;;;2.47;;
45065;SDS011;30830;53.704;10.004;2023-09-07T14:09:59;2.95;;;2.65;;
45065;SDS011;30830;53.704;10.004;2023-09-07T14:12:25;4.40;;;2.60;;
45065;SDS011;30830;53.704;10.004;2023-09-07T14:14:51;2.58;;;2.38;;
45065;SDS011;30830;53.704;10.004;2023-09-07T14:17:17;5.07;;;2.53;;
45065;SDS011;30830;53.704;10.004;2023-09-07T14:19:43;3.15;;;2.50;;
45065;SDS011;30830;53.704;10.004;2023-09-07T14:22:10;3.75;;;2.50;;
45065;SDS011;30830;53.704;10.004;2023-09-07T14:24:36;3.78;;;2.88;;
45065;SDS011;30830;53.704;10.004;2023-09-07T14:27:02;2.85;;;2.65;;
45065;SDS011;30830;53.704;10.004;2023-09-07T14:29:28;3.13;;;2.28;;